Time;durP1;ratioP1;P1;durP2;ratioP2;P2;SDS_P1;SDS_P2;PMS_P1;PMS_P2;Temp;Humidity;BMP_temperature;BMP_pressure;BME280_temperature;BME280_humidity;BME280_pressure;Samples;Min_cycle;Max_cycle;Signal;HPM_P1;HPM_P2
2024/02/06 00:10:42;;;;;;;;;;;;;;;;;;;;;
2024/02/06 00:14:10;;;;;;;2.83;0.40;;;;;;;10.31;100.00;99758.63;4829060;29;20054;-96
2024/02/06 00:16:53;;;;;;;0.88;0.40;;;;;;;10.27;100.00;99763.41;4866670;29;20041;-96
2024/02/06 00:19:49;;;;;;;1.50;0.30;;;;;;;10.32;100.00;99756.84;4867080;29;20483;-94
2024/02/06 00:22:29;;;;;;;1.48;0.20;;;;;;;10.29;100.00;99755.31;4889945;29;20075;-96
2024/02/06 00:25:24;;;;;;;1.23;0.38;;;;;;;10.25;100.00;99752.19;4900315;29;20051;-93
2024/02/06 00:27:59;;;;;;;2.20;0.65;;;;;;;10.26;100.00;99742.44;4889382;28;20108;-94
2024/02/06 00:35:19;;;;;;;;;;;;;;;;;;;;;
2024/02/06 00:42:54;;;;;;;0.20;0.20;;;;;;;10.34;100.00;99720.50;4903845;29;20063;-96
2024/02/06 00:47:21;;;;;;;;;;;;;;;;;;;;;
2024/02/06 00:51:08;;;;;;;0.70;0.20;;;;;;;10.39;100.00;99720.84;4821494;29;20047;-96
2024/02/06 00:54:17;;;;;;;0.85;0.22;;;;;;;10.34;100.00;99717.84;4918379;29;20043;-95
2024/02/06 00:57:00;;;;;;;1.30;0.43;;;;;;;10.29;100.00;99697.22;4897192;29;20040;-95
2024/02/06 01:00:20;;;;;;;;;;;;;;;;;;;;;
2024/02/06 01:04:15;;;;;;;1.85;0.30;;;;;;;10.34;100.00;99694.09;4967397;28;20077;-96
2024/02/06 01:12:13;;;;;;;;;;;;;;;;;;;;;
2024/02/06 01:15:31;;;;;;;2.85;0.38;;;;;;;10.32;100.00;99662.53;4972489;28;20046;-96
2024/02/06 01:22:18;;;;;;;1.35;0.15;;;;;;;10.28;100.00;99663.88;4944371;28;19941;-96
2024/02/06 01:24:44;;;;;;;0.35;0.20;;;;;;;10.28;100.00;99666.50;4953129;28;20038;-96
2024/02/06 01:28:17;;;;;;;1.92;0.30;;;;;;;10.37;100.00;99675.25;4964840;28;20052;-96
2024/02/06 01:31:33;;;;;;;1.25;0.10;;;;;;;10.38;100.00;99682.22;4943611;28;20031;-96
2024/02/06 01:34:00;;;;;;;0.40;0.10;;;;;;;10.29;100.00;99689.28;4943968;28;20117;-95
2024/02/06 01:36:52;;;;;;;0.40;0.10;;;;;;;10.33;100.00;99684.50;4927921;28;20513;-95
2024/02/06 01:39:42;;;;;;;5.78;0.93;;;;;;;10.29;100.00;99676.91;4953771;28;20070;-95
2024/02/06 01:46:41;;;;;;;13.80;1.83;;;;;;;10.24;100.00;99676.56;4922429;28;20046;-96
2024/02/06 01:49:51;;;;;;;;;;;;;;;;;;;;;
2024/02/06 01:52:46;;;;;;;11.93;0.95;;;;;;;10.28;100.00;99659.44;4961367;28;20050;-93
2024/02/06 02:02:41;;;;;;;;;;;;;;;;;;;;;
2024/02/06 02:10:43;;;;;;;21.98;3.13;;;;;;;10.37;100.00;99639.13;4897429;29;20040;-95
2024/02/06 02:13:39;;;;;;;23.27;3.15;;;;;;;10.36;100.00;99608.41;4895274;29;20054;-93
2024/02/06 02:16:25;;;;;;;19.23;3.97;;;;;;;10.40;100.00;99598.38;4905408;29;20048;-94
2024/02/06 02:19:28;;;;;;;21.85;3.55;;;;;;;10.47;100.00;99596.72;4901080;29;20112;-94
2024/02/06 02:22:33;;;;;;;21.70;4.57;;;;;;;10.46;100.00;99594.22;4893614;29;20071;-94
2024/02/06 02:30:41;;;;;;;25.70;4.47;;;;;;;10.51;100.00;99581.38;4865939;29;20048;-96
2024/02/06 02:33:40;;;;;;;;;;;;;;;;;;;;;
2024/02/06 02:36:51;;;;;;;22.30;3.35;;;;;;;10.48;100.00;99563.22;4936043;29;20074;-96
2024/02/06 02:43:28;;;;;;;33.55;4.25;;;;;;;10.55;100.00;99543.06;4867616;29;20051;-95
2024/02/06 02:46:41;;;;;;;11.07;2.73;;;;;;;10.56;100.00;99546.53;4876464;29;20123;-96
2024/02/06 02:49:35;;;;;;;29.00;4.45;;;;;;;10.56;100.00;99539.41;4877511;29;20472;-96
2024/02/06 02:52:33;;;;;;;14.70;3.58;;;;;;;10.54;100.00;99544.88;4881455;29;20383;-96
2024/02/06 02:54:59;;;;;;;19.23;3.53;;;;;;;10.52;100.00;99540.75;4902748;29;20051;-96
2024/02/06 02:57:25;;;;;;;19.90;3.88;;;;;;;10.49;100.00;99526.06;4890415;29;20314;-96
2024/02/06 02:59:51;;;;;;;17.63;3.10;;;;;;;10.50;100.00;99519.78;4891251;29;20528;-96
2024/02/06 03:02:25;;;;;;;21.60;3.30;;;;;;;10.52;100.00;99517.81;4906593;29;20107;-96
2024/02/06 03:06:10;;;;;;;23.30;3.40;;;;;;;10.56;100.00;99520.09;4904847;29;20051;-96
2024/02/06 03:09:08;;;;;;;19.30;3.17;;;;;;;10.57;100.00;99508.53;4863422;29;20052;-96
2024/02/06 03:11:52;;;;;;;22.00;3.55;;;;;;;10.60;100.00;99501.09;4877827;29;20041;-94
2024/02/06 03:14:57;;;;;;;;;;;;;;;10.53;100.00;99494.81;4931315;28;20053;-96
2024/02/06 03:17:57;;;;;;;23.65;3.10;;;;;;;10.54;100.00;99484.09;4955536;28;19914;-95
2024/02/06 03:20:35;;;;;;;24.55;3.33;;;;;;;10.57;100.00;99476.84;4953055;28;20385;-95
2024/02/06 03:23:04;;;;;;;19.75;4.53;;;;;;;10.52;100.00;99472.88;4925126;28;20129;-96
2024/02/06 03:25:36;;;;;;;19.63;3.38;;;;;;;10.56;100.00;99478.63;4927096;28;20042;-93
2024/02/06 03:28:13;;;;;;;19.20;3.30;;;;;;;10.50;100.00;99464.28;4936037;28;20047;-95
2024/02/06 03:30:41;;;;;;;28.70;3.47;;;;;;;10.56;100.00;99461.97;4947456;28;20045;-95
2024/02/06 03:33:16;;;;;;;21.25;3.08;;;;;;;10.53;100.00;99461.31;4927176;28;20031;-96
2024/02/06 03:35:54;;;;;;;31.92;4.78;;;;;;;10.58;100.00;99457.34;4940661;28;20082;-94
2024/02/06 03:39:12;;;;;;;21.42;3.75;;;;;;;10.57;100.00;99448.59;4935962;29;20489;-96
2024/02/06 03:46:28;;;;;;;21.17;3.55;;;;;;;10.52;100.00;99454.38;4915763;29;20105;-95
2024/02/06 03:49:19;;;;;;;18.75;2.90;;;;;;;10.51;100.00;99442.16;4867754;29;20531;-94
2024/02/06 03:52:25;;;;;;;;;;;;;;;;;;;;;
2024/02/06 03:55:22;;;;;;;19.50;3.33;;;;;;;10.45;100.00;99434.06;4909623;28;20508;-96
2024/02/06 03:57:48;;;;;;;22.08;3.30;;;;;;;10.48;100.00;99431.13;4961040;28;20126;-95
2024/02/06 04:00:14;;;;;;;22.35;4.18;;;;;;;10.48;100.00;99425.84;4945037;28;20499;-96
2024/02/06 04:02:40;;;;;;;16.77;3.70;;;;;;;10.44;100.00;99420.03;4926017;28;20058;-95
2024/02/06 04:05:06;;;;;;;24.77;3.70;;;;;;;10.46;100.00;99417.22;4958997;28;20477;-95
2024/02/06 04:07:32;;;;;;;41.35;6.10;;;;;;;10.47;100.00;99410.97;4940175;28;20157;-96
2024/02/06 04:09:59;;;;;;;21.25;3.22;;;;;;;10.50;100.00;99419.38;4961180;28;20501;-95
2024/02/06 04:12:25;;;;;;;19.90;3.13;;;;;;;10.48;100.00;99418.72;4927474;28;20031;-96
2024/02/06 04:14:51;;;;;;;18.85;3.40;;;;;;;10.50;100.00;99408.81;4956819;28;20054;-96
2024/02/06 04:17:19;;;;;;;24.95;4.07;;;;;;;10.52;100.00;99414.75;4929346;28;20034;-95
2024/02/06 04:19:48;;;;;;;27.30;4.53;;;;;;;10.52;100.00;99396.25;4930973;29;20126;-95
2024/02/06 04:22:14;;;;;;;20.73;4.55;;;;;;;10.52;100.00;99388.34;4929815;28;20049;-96
2024/02/06 04:24:40;;;;;;;24.20;3.88;;;;;;;10.57;100.00;99394.91;4944405;28;20196;-94
2024/02/06 04:27:06;;;;;;;21.80;4.35;;;;;;;10.57;100.00;99393.13;4964645;28;20039;-95
2024/02/06 04:29:32;;;;;;;22.13;4.22;;;;;;;10.60;100.00;99394.56;4955358;28;20507;-94
2024/02/06 04:31:58;;;;;;;20.02;3.10;;;;;;;10.60;100.00;99382.19;4943516;28;20039;-94
2024/02/06 04:34:33;;;;;;;22.92;3.97;;;;;;;10.68;100.00;99391.91;4929693;28;20033;-95
2024/02/06 04:36:59;;;;;;;19.70;3.90;;;;;;;10.63;100.00;99387.13;4949323;28;20057;-96
2024/02/06 04:39:25;;;;;;;18.15;3.97;;;;;;;10.69;100.00;99384.81;4958041;28;20092;-95
2024/02/06 04:41:52;;;;;;;25.45;3.95;;;;;;;10.64;100.00;99374.72;4948211;28;20113;-95
2024/02/06 04:44:24;;;;;;;26.58;3.95;;;;;;;10.71;100.00;99383.63;4952349;28;20026;-93
2024/02/06 04:46:50;;;;;;;30.95;5.40;;;;;;;10.71;100.00;99383.63;4960437;28;20477;-93
2024/02/06 04:49:16;;;;;;;24.63;4.40;;;;;;;10.69;100.00;99375.06;4945036;29;20042;-94
2024/02/06 04:51:42;;;;;;;38.40;5.75;;;;;;;10.74;100.00;99382.47;4947797;28;20034;-94
2024/02/06 04:54:08;;;;;;;28.67;4.57;;;;;;;10.70;100.00;99363.50;4947909;28;20884;-95
2024/02/06 04:56:34;;;;;;;29.25;6.47;;;;;;;10.74;100.00;99391.22;4965309;28;20038;-96
2024/02/06 04:59:01;;;;;;;30.27;4.68;;;;;;;10.71;100.00;99377.53;4953831;28;20039;-96
2024/02/06 05:01:27;;;;;;;39.70;5.00;;;;;;;10.70;100.00;99375.88;4951210;28;20035;-95
2024/02/06 05:03:53;;;;;;;23.52;3.63;;;;;;;10.70;100.00;99382.00;4952961;28;20136;-95
2024/02/06 05:06:19;;;;;;;22.92;4.00;;;;;;;10.69;100.00;99372.41;4929369;28;20066;-96
2024/02/06 05:08:45;;;;;;;19.77;4.07;;;;;;;10.67;100.00;99374.41;4958343;28;20050;-93
2024/02/06 05:11:12;;;;;;;27.83;6.75;;;;;;;10.67;100.00;99379.69;4929922;28;20177;-96
2024/02/06 05:13:39;;;;;;;35.88;4.35;;;;;;;10.66;100.00;99375.41;4937395;28;20097;-94
2024/02/06 05:16:06;;;;;;;24.65;4.30;;;;;;;10.71;100.00;99375.72;4955321;28;20090;-95
2024/02/06 05:18:32;;;;;;;21.92;4.18;;;;;;;10.66;100.00;99372.75;4945642;28;20039;-96
2024/02/06 05:21:00;;;;;;;19.77;4.30;;;;;;;10.72;100.00;99373.91;4933784;28;20853;-95
2024/02/06 05:23:26;;;;;;;27.52;3.78;;;;;;;10.64;100.00;99367.63;4937459;28;20035;-95
2024/02/06 05:25:56;;;;;;;25.95;4.60;;;;;;;10.68;100.00;99370.78;4934323;28;20481;-96
2024/02/06 05:28:25;;;;;;;27.90;4.32;;;;;;;10.64;100.00;99357.06;4943504;28;20038;-95
2024/02/06 05:30:56;;;;;;;16.00;2.80;;;;;;;10.65;100.00;99360.53;4942983;28;20035;-96
2024/02/06 05:33:25;;;;;;;22.52;3.58;;;;;;;10.63;100.00;99358.06;4930545;28;20039;-96
2024/02/06 05:35:51;;;;;;;18.98;3.72;;;;;;;10.64;100.00;99359.72;4927126;28;20047;-94
2024/02/06 05:38:20;;;;;;;14.10;2.97;;;;;;;10.64;100.00;99357.06;4924002;28;20129;-93
2024/02/06 05:40:46;;;;;;;18.45;3.05;;;;;;;10.63;100.00;99351.94;4943675;28;20509;-92
2024/02/06 05:43:16;;;;;;;23.63;4.10;;;;;;;10.62;100.00;99361.69;4962216;28;20042;-95
2024/02/06 05:45:48;;;;;;;24.90;3.95;;;;;;;10.67;100.00;99364.66;4936431;28;20134;-95
2024/02/06 05:48:14;;;;;;;15.13;3.28;;;;;;;10.67;100.00;99372.56;4944986;28;20034;-94
2024/02/06 05:50:40;;;;;;;17.83;3.72;;;;;;;10.67;100.00;99363.84;4942767;28;20034;-94
2024/02/06 05:53:09;;;;;;;20.80;3.20;;;;;;;10.72;100.00;99371.25;4929727;28;20061;-94
2024/02/06 05:55:35;;;;;;;16.33;3.47;;;;;;;10.65;100.00;99368.47;4938635;28;20039;-95
2024/02/06 05:58:04;;;;;;;16.92;3.28;;;;;;;10.71;100.00;99369.59;4940158;28;20049;-94
2024/02/06 06:00:31;;;;;;;19.83;3.05;;;;;;;10.71;100.00;99374.88;4945657;28;20054;-93
2024/02/06 06:02:57;;;;;;;17.85;3.50;;;;;;;10.71;100.00;99382.81;4925513;28;20034;-94
2024/02/06 06:05:26;;;;;;;27.67;3.65;;;;;;;10.74;100.00;99377.19;4937804;28;20047;-95
2024/02/06 06:07:52;;;;;;;16.90;2.65;;;;;;;10.73;100.00;99370.25;4962427;28;20666;-94
2024/02/06 06:10:18;;;;;;;19.15;3.17;;;;;;;10.73;100.00;99378.19;4925421;28;20055;-94
2024/02/06 06:12:44;;;;;;;13.65;2.70;;;;;;;10.73;100.00;99370.25;4959461;28;20132;-95
2024/02/06 06:15:10;;;;;;;11.63;2.45;;;;;;;10.73;100.00;99372.91;4942949;28;20042;-95
2024/02/06 06:17:39;;;;;;;12.75;2.50;;;;;;;10.72;100.00;99368.63;4945729;28;20058;-95
2024/02/06 06:20:17;;;;;;;14.02;2.38;;;;;;;10.78;100.00;99366.09;4941376;28;20117;-95
2024/02/06 06:22:52;;;;;;;12.75;2.38;;;;;;;10.75;100.00;99370.91;4941290;28;20034;-94
2024/02/06 06:25:27;;;;;;;16.58;2.70;;;;;;;10.79;100.00;99377.50;4931197;28;20126;-96
2024/02/06 06:27:59;;;;;;;24.50;2.75;;;;;;;10.76;100.00;99381.31;4939929;28;20112;-95
2024/02/06 06:30:38;;;;;;;12.95;2.35;;;;;;;10.77;100.00;99377.66;4940649;28;20026;-94
2024/02/06 06:33:26;;;;;;;11.35;1.77;;;;;;;10.81;100.00;99379.97;4937671;29;20046;-96
2024/02/06 06:36:02;;;;;;;9.48;2.03;;;;;;;10.81;100.00;99377.31;4939733;28;20045;-96
2024/02/06 06:38:32;;;;;;;12.13;1.95;;;;;;;10.82;100.00;99373.66;4940556;28;20162;-95
2024/02/06 06:41:07;;;;;;;11.32;1.50;;;;;;;10.76;100.00;99372.56;4932410;28;20045;-94
2024/02/06 06:43:50;;;;;;;10.63;1.67;;;;;;;10.81;100.00;99364.94;4930838;28;20511;-93
2024/02/06 06:46:40;;;;;;;11.88;2.20;;;;;;;10.86;100.00;99372.34;4952886;28;20039;-95
2024/02/06 06:49:39;;;;;;;14.00;1.63;;;;;;;10.85;100.00;99360.94;4932066;28;20130;-96
2024/02/06 06:52:22;;;;;;;16.23;1.77;;;;;;;10.88;100.00;99375.63;4945028;28;20130;-96
2024/02/06 06:54:57;;;;;;;8.88;1.60;;;;;;;10.82;100.00;99366.56;4952016;28;20050;-94
2024/02/06 06:57:34;;;;;;;9.07;1.40;;;;;;;10.83;100.00;99375.34;4941112;28;20039;-95
2024/02/06 07:00:12;;;;;;;10.52;1.67;;;;;;;10.88;100.00;99375.63;4943664;28;20032;-96
2024/02/06 07:02:47;;;;;;;7.22;1.30;;;;;;;10.85;100.00;99376.81;4950181;28;20046;-96
2024/02/06 07:05:20;;;;;;;7.28;1.40;;;;;;;10.84;100.00;99375.16;4935053;28;20489;-96
2024/02/06 07:08:05;;;;;;;6.88;1.15;;;;;;;10.90;100.00;99373.63;4938075;28;20039;-96
2024/02/06 07:11:18;;;;;;;8.25;1.10;;;;;;;10.96;100.00;99364.22;4923311;29;20039;-93
2024/02/06 07:20:32;;;;;;;8.73;1.27;;;;;;;11.01;100.00;99352.09;4963517;28;20043;-95
2024/02/06 07:23:03;;;;;;;7.55;1.42;;;;;;;11.04;100.00;99335.06;4926504;28;20046;-95
2024/02/06 07:25:32;;;;;;;7.82;1.30;;;;;;;11.06;100.00;99332.22;4945063;28;20042;-95
2024/02/06 07:28:00;;;;;;;7.03;1.38;;;;;;;11.01;100.00;99325.66;4926768;28;20043;-94
2024/02/06 07:30:27;;;;;;;6.88;1.67;;;;;;;11.03;100.00;99330.78;4926685;28;20031;-95
2024/02/06 07:32:56;;;;;;;12.65;2.05;;;;;;;11.01;100.00;99316.91;4944804;28;20378;-94
2024/02/06 07:35:52;;;;;;;11.63;2.00;;;;;;;11.09;100.00;99318.66;4941012;28;20109;-95
2024/02/06 07:38:24;;;;;;;14.32;2.70;;;;;;;11.07;100.00;99310.09;4944962;28;20558;-94
2024/02/06 07:41:11;;;;;;;;;;;;;;;;;;;;;
2024/02/06 07:44:23;;;;;;;16.70;3.05;;;;;;;11.01;100.00;99303.66;4974446;28;20154;-95
2024/02/06 07:47:35;;;;;;;19.63;3.33;;;;;;;11.04;100.00;99308.59;4951483;28;20563;-95
2024/02/06 07:50:11;;;;;;;20.42;3.88;;;;;;;11.04;100.00;99306.78;4986152;28;20481;-94
2024/02/06 07:56:06;;;;;;;35.88;6.85;;;;;;;11.02;100.00;99313.28;4931795;28;20079;-95
2024/02/06 07:59:12;;;;;;;31.48;5.15;;;;;;;11.03;100.00;99305.16;4927027;28;20062;-95
2024/02/06 08:05:30;;;;;;;21.75;5.03;;;;;;;11.06;100.00;99305.78;4926006;29;20127;-94
2024/02/06 08:08:05;;;;;;;24.02;4.70;;;;;;;10.97;100.00;99297.94;4969943;28;20039;-95
2024/02/06 08:10:47;;;;;;;23.48;4.60;;;;;;;11.01;100.00;99298.38;4944718;28;20114;-95
2024/02/06 08:13:40;;;;;;;34.03;4.90;;;;;;;11.03;100.00;99294.59;4973200;28;20061;-95
2024/02/06 08:16:15;;;;;;;27.02;4.68;;;;;;;11.00;100.00;99300.22;4952096;28;20050;-93
2024/02/06 08:18:48;;;;;;;34.63;6.03;;;;;;;10.91;100.00;99303.91;4949260;28;20066;-96
2024/02/06 08:21:23;;;;;;;34.13;5.13;;;;;;;11.01;100.00;99298.38;4950684;28;20058;-95
2024/02/06 08:23:54;;;;;;;26.45;5.00;;;;;;;10.95;100.00;99289.34;4948076;28;20493;-93
2024/02/06 08:27:07;;;;;;;;;;;;;;;10.93;100.00;99288.69;4974909;28;20169;-94
2024/02/06 08:29:43;;;;;;;27.35;4.82;;;;;;;10.91;100.00;99282.75;4943843;28;19960;-94
2024/02/06 08:32:43;;;;;;;29.08;5.18;;;;;;;10.98;100.00;99289.00;4943611;28;20034;-95
2024/02/06 08:35:23;;;;;;;24.98;4.95;;;;;;;10.98;100.00;99296.94;4926848;28;20034;-94
2024/02/06 08:38:02;;;;;;;30.45;5.45;;;;;;;11.02;100.00;99292.13;4938841;28;20046;-95
2024/02/06 08:40:29;;;;;;;28.33;5.77;;;;;;;10.96;100.00;99290.97;4967136;28;20473;-94
2024/02/06 08:42:58;;;;;;;26.17;4.63;;;;;;;11.03;100.00;99288.47;4943408;28;20473;-96
2024/02/06 08:46:46;;;;;;;26.52;4.82;;;;;;;11.05;100.00;99294.41;4956244;28;20485;-94
2024/02/06 08:53:35;;;;;;;34.33;4.93;;;;;;;11.09;100.00;99289.56;4962030;28;20038;-96
2024/02/06 08:56:52;;;;;;;27.63;6.40;;;;;;;11.10;100.00;99299.97;4969811;28;20436;-96
2024/02/06 08:59:47;;;;;;;25.48;4.88;;;;;;;11.13;100.00;99299.63;4928242;29;20130;-96
2024/02/06 09:02:44;;;;;;;18.77;4.65;;;;;;;11.13;100.00;99286.41;4933347;28;20050;-95
2024/02/06 09:06:03;;;;;;;26.92;4.28;;;;;;;11.16;100.00;99293.16;4938552;28;20062;-96
2024/02/06 09:12:46;;;;;;;26.10;4.35;;;;;;;11.18;100.00;99280.56;4968911;28;20466;-96
2024/02/06 09:15:33;;;;;;;31.85;5.07;;;;;;;11.20;100.00;99285.69;4936561;29;20059;-96
2024/02/06 09:18:34;;;;;;;34.42;4.88;;;;;;;11.19;100.00;99274.31;4941954;28;20042;-96
2024/02/06 09:21:04;;;;;;;25.05;3.97;;;;;;;11.22;100.00;99275.75;4927299;28;20153;-95
2024/02/06 09:23:37;;;;;;;30.92;4.95;;;;;;;11.21;100.00;99264.34;4941007;28;20050;-95
2024/02/06 09:26:18;;;;;;;25.50;4.35;;;;;;;11.25;100.00;99273.59;4929961;28;20038;-95
2024/02/06 09:32:48;;;;;;;25.98;4.78;;;;;;;11.22;100.00;99279.25;4947288;28;20039;-96
2024/02/06 09:35:22;;;;;;;21.52;3.35;;;;;;;11.23;100.00;99303.84;4944307;28;20058;-95
2024/02/06 09:37:55;;;;;;;27.48;4.63;;;;;;;11.19;100.00;99332.50;4940779;28;20038;-96
2024/02/06 09:40:29;;;;;;;13.90;1.70;;;;;;;11.15;100.00;99354.97;4939717;28;20497;-95
2024/02/06 09:42:55;;;;;;;5.78;0.90;;;;;;;10.73;100.00;99338.53;4942015;28;20489;-96
2024/02/06 09:45:45;;;;;;;1.83;0.50;;;;;;;10.54;100.00;99348.53;4927298;28;20039;-94
2024/02/06 09:48:43;;;;;;;2.13;0.47;;;;;;;10.06;100.00;99351.94;4962291;28;20431;-95
2024/02/06 09:51:13;;;;;;;3.20;0.50;;;;;;;9.66;100.00;99357.94;4949272;28;20023;-96
2024/02/06 09:53:45;;;;;;;0.77;0.25;;;;;;;9.33;100.00;99362.34;4939197;28;20031;-95
2024/02/06 09:56:55;;;;;;;0.30;0.13;;;;;;;9.17;100.00;99361.34;4902729;29;20051;-95
2024/02/06 09:59:26;;;;;;;1.10;0.57;;;;;;;9.00;100.00;99368.41;4943175;28;20034;-95
2024/02/06 10:02:04;;;;;;;0.40;0.30;;;;;;;8.96;100.00;99369.69;4926283;28;20031;-96
2024/02/06 10:04:35;;;;;;;0.43;0.20;;;;;;;8.86;100.00;99383.00;4939172;28;20038;-96
2024/02/06 10:07:07;;;;;;;0.47;0.20;;;;;;;8.76;100.00;99391.03;4934325;28;20079;-95
2024/02/06 10:09:39;;;;;;;2.55;0.10;;;;;;;8.65;100.00;99392.13;4921267;28;20103;-96
2024/02/06 10:12:13;;;;;;;0.25;0.20;;;;;;;8.61;100.00;99409.25;4913608;28;20094;-96
2024/02/06 10:14:49;;;;;;;0.38;0.20;;;;;;;8.46;100.00;99399.25;4921707;29;20051;-95
2024/02/06 10:17:18;;;;;;;1.60;0.10;;;;;;;8.40;100.00;99413.88;4922812;29;20035;-96
2024/02/06 10:19:47;;;;;;;0.30;0.10;;;;;;;8.34;100.00;99421.56;4927664;28;20038;-95
2024/02/06 10:22:19;;;;;;;0.10;0.10;;;;;;;8.21;100.00;99427.25;4924222;28;20499;-96
2024/02/06 10:25:08;;;;;;;1.65;0.10;;;;;;;8.03;100.00;99428.09;4918707;29;20043;-95
2024/02/06 10:27:42;;;;;;;0.45;0.10;;;;;;;8.00;100.00;99431.03;4903487;29;20493;-95
2024/02/06 10:30:10;;;;;;;1.08;0.10;;;;;;;7.91;100.00;99417.00;4920879;28;20394;-95
2024/02/06 10:32:39;;;;;;;1.13;0.10;;;;;;;7.80;100.00;99423.34;4907172;29;20118;-96
2024/02/06 10:35:39;;;;;;;4.30;0.10;;;;;;;7.81;100.00;99432.88;4921823;29;20513;-96
2024/02/06 10:38:41;;;;;;;1.73;0.20;;;;;;;7.72;100.00;99433.78;4920384;28;20192;-95
2024/02/06 10:41:48;;;;;;;1.70;0.50;;;;;;;7.64;100.00;99437.16;4922256;29;20062;-96
2024/02/06 10:44:43;;;;;;;2.83;0.30;;;;;;;7.71;100.00;99435.56;4924884;28;20035;-96
2024/02/06 10:47:18;;;;;;;0.60;0.22;;;;;;;7.79;100.00;99440.91;4933867;29;20039;-95
2024/02/06 10:50:14;;;;;;;0.65;0.30;;;;;;;7.79;100.00;99437.44;4920317;29;20039;-96
2024/02/06 10:53:04;;;;;;;1.52;0.40;;;;;;;7.74;100.00;99444.97;4910614;29;20079;-96
2024/02/06 10:56:05;;;;;;;2.63;0.50;;;;;;;7.72;100.00;99442.50;4920635;29;20078;-96
2024/02/06 10:58:41;;;;;;;2.10;0.60;;;;;;;7.67;100.00;99442.97;4922810;28;20501;-96
2024/02/06 11:01:19;;;;;;;1.15;0.40;;;;;;;7.67;100.00;99448.22;4906850;29;20042;-96
2024/02/06 11:03:58;;;;;;;1.70;0.43;;;;;;;7.64;100.00;99451.16;4923308;28;20114;-96
2024/02/06 11:06:38;;;;;;;3.33;0.40;;;;;;;7.63;100.00;99449.47;4928582;28;20078;-96
2024/02/06 11:09:28;;;;;;;0.55;0.20;;;;;;;7.63;100.00;99456.56;4946348;28;20094;-96
2024/02/06 11:16:02;;;;;;;1.08;0.43;;;;;;;7.51;100.00;99467.28;4940541;28;20047;-95
2024/02/06 11:22:52;;;;;;;2.80;0.65;;;;;;;7.51;100.00;99461.19;4866363;29;20049;-96
2024/02/06 11:26:13;;;;;;;;;;;;;;;;;;;;;
2024/02/06 11:42:09;;;;;;;5.50;1.20;;;;;;;7.24;100.00;99476.00;4960763;28;20480;-95
2024/02/06 11:45:20;;;;;;;7.38;1.23;;;;;;;7.29;100.00;99484.28;4919207;28;20047;-96
2024/02/06 11:48:13;;;;;;;12.13;1.88;;;;;;;7.26;100.00;99482.78;4929719;29;20122;-95
2024/02/06 11:51:18;;;;;;;;;;;;;;;;;;;;;
2024/02/06 11:54:45;;;;;;;4.63;1.58;;;;;;;7.34;100.00;99489.13;4936569;28;20053;-96
2024/02/06 11:57:54;;;;;;;10.05;2.42;;;;;;;7.35;100.00;99477.63;4935394;29;20090;-96
2024/02/06 12:01:30;;;;;;;8.30;2.15;;;;;;;7.41;100.00;99488.38;4926444;28;20046;-96
2024/02/06 12:04:32;;;;;;;11.25;2.47;;;;;;;7.41;100.00;99488.38;4918128;28;20031;-96
2024/02/06 12:07:58;;;;;;;11.75;2.25;;;;;;;7.43;100.00;99481.19;4958562;28;20058;-95
2024/02/06 12:10:47;;;;;;;8.32;1.75;;;;;;;7.52;100.00;99476.81;4937538;28;20133;-96
2024/02/06 12:13:55;;;;;;;11.02;1.92;;;;;;;7.66;100.00;99493.88;4941345;28;20106;-96
2024/02/06 12:16:56;;;;;;;11.23;2.00;;;;;;;7.72;100.00;99487.22;4942059;28;20030;-96
2024/02/06 12:19:38;;;;;;;8.63;2.05;;;;;;;7.46;100.00;99461.63;4927984;28;20054;-96
2024/02/06 12:22:14;;;;;;;11.23;2.35;;;;;;;7.45;100.00;99468.69;4962409;28;20035;-96
2024/02/06 12:29:05;;;;;;;12.52;1.60;;;;;;;7.30;100.00;99449.97;4950056;28;20034;-95
2024/02/06 12:31:37;;;;;;;7.63;0.95;;;;;;;7.23;100.00;99440.19;4944158;28;20073;-95
2024/02/06 12:34:17;;;;;;;11.88;1.52;;;;;;;7.14;100.00;99444.53;4929405;28;20039;-95
2024/02/06 12:36:57;;;;;;;;;;;;;;;;;;;;;
2024/02/06 12:40:15;;;;;;;;;;;;;;;;;;;;;
2024/02/06 12:43:30;;;;;;;;;;;;;;;7.04;100.00;99439.34;4947595;28;20076;-96
2024/02/06 12:46:02;;;;;;;7.00;1.67;;;;;;;7.02;100.00;99441.28;4948802;28;19917;-96
2024/02/06 12:48:30;;;;;;;9.48;1.77;;;;;;;6.97;100.00;99440.88;4938517;28;20488;-96
2024/02/06 12:51:04;;;;;;;12.32;1.52;;;;;;;6.91;100.00;99440.47;4923659;29;20090;-95
2024/02/06 12:53:49;;;;;;;8.93;1.17;;;;;;;6.87;100.00;99431.25;4938558;28;20661;-96
2024/02/06 12:56:23;;;;;;;6.13;1.08;;;;;;;6.75;100.00;99425.38;4938386;28;20041;-96
2024/02/06 12:59:02;;;;;;;7.47;1.60;;;;;;;6.73;100.00;99415.97;4940411;28;20062;-95
2024/02/06 13:01:42;;;;;;;7.85;1.20;;;;;;;6.86;100.00;99426.16;4926643;28;20085;-96
2024/02/06 13:04:38;;;;;;;15.48;2.08;;;;;;;6.83;100.00;99417.56;4950879;28;20511;-96
2024/02/06 13:11:57;;;;;;;6.40;1.15;;;;;;;6.76;100.00;99419.13;4952584;28;20069;-95
2024/02/06 13:14:53;;;;;;;8.32;1.80;;;;;;;6.82;100.00;99415.09;4926424;28;20035;-95
2024/02/06 13:17:57;;;;;;;6.82;1.02;;;;;;;6.65;100.00;99401.78;4915174;28;20069;-96
2024/02/06 13:20:41;;;;;;;10.40;2.08;;;;;;;6.62;100.00;99407.31;4911128;28;20030;-96
2024/02/06 13:23:24;;;;;;;7.10;1.30;;;;;;;6.71;100.00;99408.22;4927031;28;20090;-95
2024/02/06 13:26:03;;;;;;;7.63;1.02;;;;;;;6.67;100.00;99399.00;4915991;29;20043;-95
2024/02/06 13:28:30;;;;;;;11.90;1.38;;;;;;;6.63;100.00;99398.44;4910934;28;20039;-95
2024/02/06 13:31:02;;;;;;;9.68;2.20;;;;;;;6.59;100.00;99397.09;4902863;28;20043;-95
2024/02/06 13:36:53;;;;;;;9.90;1.35;;;;;;;6.55;100.00;99390.47;4917397;28;20111;-95
2024/02/06 13:39:50;;;;;;;12.25;2.40;;;;;;;6.54;100.00;99388.81;4922724;28;20177;-95
2024/02/06 13:42:27;;;;;;;8.77;1.40;;;;;;;6.38;100.00;99379.75;4917539;28;21170;-95
2024/02/06 13:45:29;;;;;;;8.50;1.67;;;;;;;6.48;100.00;99389.41;4920214;28;20039;-96
2024/02/06 13:48:01;;;;;;;12.23;2.22;;;;;;;6.45;100.00;99387.88;4922804;28;20045;-95
2024/02/06 13:50:31;;;;;;;5.70;1.00;;;;;;;6.44;100.00;99383.59;4924321;28;20090;-94
2024/02/06 13:53:23;;;;;;;19.90;1.92;;;;;;;6.48;100.00;99378.91;4904615;28;20039;-95
2024/02/06 13:56:01;;;;;;;;;;;;;;;6.52;100.00;99386.34;4903185;29;20103;-95
2024/02/06 13:58:31;;;;;;;11.25;1.65;;;;;;;6.49;100.00;99381.38;4902836;28;19925;-96
2024/02/06 14:01:09;;;;;;;5.85;1.33;;;;;;;6.49;100.00;99396.28;4937208;28;20031;-95
2024/02/06 14:04:33;;;;;;;10.95;1.45;;;;;;;6.55;100.00;99393.94;4935722;29;20039;-95
2024/02/06 14:07:25;;;;;;;12.60;2.47;;;;;;;6.51;100.00;99389.94;4885664;29;20139;-95
2024/02/06 14:09:58;;;;;;;14.30;1.90;;;;;;;6.50;100.00;99387.47;4875309;29;20490;-96
2024/02/06 14:12:27;;;;;;;10.70;1.98;;;;;;;6.59;100.00;99386.59;4876173;29;20047;-96
2024/02/06 14:14:54;;;;;;;12.52;2.70;;;;;;;6.56;100.00;99386.88;4861570;29;20036;-96
2024/02/06 14:17:44;;;;;;;6.40;1.15;;;;;;;6.51;100.00;99386.47;4872990;29;20134;-95
2024/02/06 14:20:32;;;;;;;11.85;1.30;;;;;;;6.35;100.00;99389.72;4865544;29;20053;-95
2024/02/06 14:23:04;;;;;;;8.75;1.88;;;;;;;6.40;100.00;99390.13;4878466;29;20048;-96
2024/02/06 14:25:34;;;;;;;11.82;2.70;;;;;;;6.39;100.00;99394.53;4877706;29;20088;-95
2024/02/06 14:28:00;;;;;;;15.38;2.13;;;;;;;6.28;100.00;99389.44;4850870;29;20063;-95
2024/02/06 14:31:02;;;;;;;9.45;1.73;;;;;;;6.26;100.00;99394.84;4862588;29;20039;-95
2024/02/06 14:34:23;;;;;;;13.52;1.30;;;;;;;6.32;100.00;99393.47;4891384;29;20776;-95
2024/02/06 14:37:00;;;;;;;8.00;1.15;;;;;;;6.14;100.00;99385.47;4827861;29;20056;-96
2024/02/06 14:39:53;;;;;;;18.55;1.65;;;;;;;6.01;100.00;99386.59;4914055;28;20134;-96
2024/02/06 14:42:46;;;;;;;12.23;1.55;;;;;;;6.07;100.00;99393.91;4907323;28;20062;-95
2024/02/06 14:45:19;;;;;;;13.07;1.73;;;;;;;6.00;100.00;99384.09;4923312;28;20099;-95
2024/02/06 14:47:53;;;;;;;13.23;1.33;;;;;;;6.09;100.00;99393.78;4918299;29;20114;-96
2024/02/06 14:54:30;;;;;;;11.25;1.80;;;;;;;6.03;100.00;99383.81;4886879;29;20120;-95
2024/02/06 14:57:34;;;;;;;9.75;1.10;;;;;;;5.93;100.00;99374.19;4846557;29;20044;-95
2024/02/06 15:00:35;;;;;;;9.70;1.65;;;;;;;5.81;100.00;99365.63;4879586;29;20105;-96